Aeroporto :







RITROVATECI SU...

 
LOGIN :

Iscrizione | Disclaimer

   EN    FR    IT 

 









Sommario :    VFR   VFR Marginale   IFR   IFR Intensivo   IFR Molto Intensivo
Visibilità : 
Base nubi : 
>= 8 km
>= 3000ft
5 / 8 km
1000 / 3000 ft
1500m / 5 km
500 / 1000 ft
800 / 1500m
200 / 500 ft
< 800m
< 200 ft
Simboli :   Temporali  Nebbia  Neve Forte  Precipitazioni Forti  Vento > 20 kt






- Altitudine del aeroporto : 501 ft
- Codice IATA : YWB


CYKG - Kangiqsujuaq (Wakeham Bay)

ULTIMO METAR :
  • 131600Z 20003KT 170V330 15SM FEW045 SCT250 M10/M17 A2980 RMK SC2CI1 SLP110

METARs OBSOLETI :
  • 131500Z VRB02KT 15SM FEW045 FEW250 M11/M17 A2982 RMK SC2CI1 CI TR SLP115

TAF TAF CYKG
Valido dal 13 a 15 ore il 13 a 22 ore UTC


131438Z 1315/1322 29006KT P6SM FEW040 SCT250
TEMPO 1315/1322 4SM -SN BKN040 BKN250 RMK NXT FCST WILL BE ISSUED AT 141445Z



MetMap, La meteo Aeronautica in un colpo d'occhio ! - Copyright ORBIFLY Dicembre 2007 - Disclaimer

ORBIFLY MET'MAP TEAM :

Programmazione e sviluppo : Alexandra Zaïnal
Concezione e sviluppo : Baudouin d'Aumeries
Co-Programmazione e sviluppo : Marc-Olivier Méhu
Supporto tecnico e logistico : Manuel Goepfert
Aiuto per la traduzione : Arnaldo La Scala

Contatto : metmap@orbifly.com




FONTI E CREDITI :

   NOAA